sensor_id;sensor_type;location;lat;lon;timestamp;temperature;humidity
63283;DHT22;49407;51.388;0.048;2022-08-06T00:00:25;17.70;52.80
63283;DHT22;49407;51.388;0.048;2022-08-06T00:02:53;17.60;52.90
63283;DHT22;49407;51.388;0.048;2022-08-06T00:05:20;17.60;52.90
63283;DHT22;49407;51.388;0.048;2022-08-06T00:08:01;17.60;53.10
63283;DHT22;49407;51.388;0.048;2022-08-06T00:10:29;17.50;53.10
63283;DHT22;49407;51.388;0.048;2022-08-06T00:12:58;17.50;53.30
63283;DHT22;49407;51.388;0.048;2022-08-06T00:15:28;17.50;53.40
63283;DHT22;49407;51.388;0.048;2022-08-06T00:18:15;17.50;53.50
63283;DHT22;49407;51.388;0.048;2022-08-06T00:20:44;17.50;53.70
63283;DHT22;49407;51.388;0.048;2022-08-06T00:23:16;17.40;53.80
63283;DHT22;49407;51.388;0.048;2022-08-06T00:25:44;17.40;54.00
63283;DHT22;49407;51.388;0.048;2022-08-06T00:28:23;17.40;54.10
63283;DHT22;49407;51.388;0.048;2022-08-06T00:31:00;17.40;54.20
63283;DHT22;49407;51.388;0.048;2022-08-06T00:33:37;17.40;54.30
63283;DHT22;49407;51.388;0.048;2022-08-06T00:36:17;17.40;54.40
63283;DHT22;49407;51.388;0.048;2022-08-06T00:38:51;17.30;54.40
63283;DHT22;49407;51.388;0.048;2022-08-06T00:41:18;17.30;54.70
63283;DHT22;49407;51.388;0.048;2022-08-06T00:43:48;17.30;54.90
63283;DHT22;49407;51.388;0.048;2022-08-06T00:46:15;17.30;55.20
63283;DHT22;49407;51.388;0.048;2022-08-06T00:48:43;17.20;55.30
63283;DHT22;49407;51.388;0.048;2022-08-06T00:54:25;17.10;56.00
63283;DHT22;49407;51.388;0.048;2022-08-06T00:57:01;17.10;55.90
63283;DHT22;49407;51.388;0.048;2022-08-06T00:59:33;17.10;56.10
63283;DHT22;49407;51.388;0.048;2022-08-06T01:02:01;17.10;56.20
63283;DHT22;49407;51.388;0.048;2022-08-06T01:04:35;17.00;56.50
63283;DHT22;49407;51.388;0.048;2022-08-06T01:07:04;17.00;56.70
63283;DHT22;49407;51.388;0.048;2022-08-06T01:09:36;16.90;56.80
63283;DHT22;49407;51.388;0.048;2022-08-06T01:12:23;16.90;57.00
63283;DHT22;49407;51.388;0.048;2022-08-06T01:15:03;16.80;57.10
63283;DHT22;49407;51.388;0.048;2022-08-06T01:26:49;16.70;57.60
63283;DHT22;49407;51.388;0.048;2022-08-06T01:29:31;16.60;57.80
63283;DHT22;49407;51.388;0.048;2022-08-06T01:32:05;16.60;57.90
63283;DHT22;49407;51.388;0.048;2022-08-06T01:34:39;16.60;57.90
63283;DHT22;49407;51.388;0.048;2022-08-06T01:37:29;16.50;58.20
63283;DHT22;49407;51.388;0.048;2022-08-06T01:40:10;16.40;58.50
63283;DHT22;49407;51.388;0.048;2022-08-06T01:42:41;16.40;58.40
63283;DHT22;49407;51.388;0.048;2022-08-06T01:45:21;16.40;58.50
63283;DHT22;49407;51.388;0.048;2022-08-06T01:48:13;16.40;58.60
63283;DHT22;49407;51.388;0.048;2022-08-06T01:50:44;16.30;58.70
63283;DHT22;49407;51.388;0.048;2022-08-06T01:53:15;16.30;58.60
63283;DHT22;49407;51.388;0.048;2022-08-06T01:56:07;16.30;58.60
63283;DHT22;49407;51.388;0.048;2022-08-06T01:58:38;16.20;58.90
63283;DHT22;49407;51.388;0.048;2022-08-06T02:01:13;16.10;59.10
63283;DHT22;49407;51.388;0.048;2022-08-06T02:03:47;16.10;59.30
63283;DHT22;49407;51.388;0.048;2022-08-06T02:06:32;16.00;59.50
63283;DHT22;49407;51.388;0.048;2022-08-06T02:09:05;16.00;59.70
63283;DHT22;49407;51.388;0.048;2022-08-06T02:12:02;15.90;59.80
63283;DHT22;49407;51.388;0.048;2022-08-06T02:14:39;15.90;60.00
63283;DHT22;49407;51.388;0.048;2022-08-06T02:17:11;15.80;60.70
63283;DHT22;49407;51.388;0.048;2022-08-06T02:19:46;15.80;60.30
63283;DHT22;49407;51.388;0.048;2022-08-06T02:22:37;15.70;60.50
63283;DHT22;49407;51.388;0.048;2022-08-06T02:25:10;15.70;60.60
63283;DHT22;49407;51.388;0.048;2022-08-06T02:27:54;15.70;60.80
63283;DHT22;49407;51.388;0.048;2022-08-06T02:30:29;15.60;60.90
63283;DHT22;49407;51.388;0.048;2022-08-06T02:33:01;15.60;61.10
63283;DHT22;49407;51.388;0.048;2022-08-06T02:35:30;15.50;61.10
63283;DHT22;49407;51.388;0.048;2022-08-06T02:38:27;15.50;61.30
63283;DHT22;49407;51.388;0.048;2022-08-06T02:41:01;15.40;61.60
63283;DHT22;49407;51.388;0.048;2022-08-06T02:43:35;15.40;62.20
63283;DHT22;49407;51.388;0.048;2022-08-06T02:46:11;15.40;61.90
63283;DHT22;49407;51.388;0.048;2022-08-06T02:48:50;15.30;62.20
63283;DHT22;49407;51.388;0.048;2022-08-06T02:51:28;15.30;62.20
63283;DHT22;49407;51.388;0.048;2022-08-06T02:54:22;15.30;62.10
63283;DHT22;49407;51.388;0.048;2022-08-06T02:56:55;15.30;62.10
63283;DHT22;49407;51.388;0.048;2022-08-06T02:59:29;15.20;62.20
63283;DHT22;49407;51.388;0.048;2022-08-06T03:02:07;15.10;62.30
63283;DHT22;49407;51.388;0.048;2022-08-06T03:04:43;15.10;62.40
63283;DHT22;49407;51.388;0.048;2022-08-06T03:07:20;15.00;62.50
63283;DHT22;49407;51.388;0.048;2022-08-06T03:09:55;15.00;62.60
63283;DHT22;49407;51.388;0.048;2022-08-06T03:12:23;14.90;62.70
63283;DHT22;49407;51.388;0.048;2022-08-06T03:14:58;14.80;62.80
63283;DHT22;49407;51.388;0.048;2022-08-06T03:17:36;14.80;63.10
63283;DHT22;49407;51.388;0.048;2022-08-06T03:20:05;14.70;63.20
63283;DHT22;49407;51.388;0.048;2022-08-06T03:22:42;14.70;63.40
63283;DHT22;49407;51.388;0.048;2022-08-06T03:25:12;14.70;63.50
63283;DHT22;49407;51.388;0.048;2022-08-06T03:27:41;14.60;63.70
63283;DHT22;49407;51.388;0.048;2022-08-06T03:30:16;14.60;64.00
63283;DHT22;49407;51.388;0.048;2022-08-06T03:33:10;14.50;64.10
63283;DHT22;49407;51.388;0.048;2022-08-06T03:35:57;14.50;64.30
63283;DHT22;49407;51.388;0.048;2022-08-06T03:38:28;14.50;64.30
63283;DHT22;49407;51.388;0.048;2022-08-06T03:41:00;14.40;64.40
63283;DHT22;49407;51.388;0.048;2022-08-06T03:43:29;14.30;64.50
63283;DHT22;49407;51.388;0.048;2022-08-06T03:46:21;14.30;64.90
63283;DHT22;49407;51.388;0.048;2022-08-06T03:48:53;14.20;64.90
63283;DHT22;49407;51.388;0.048;2022-08-06T03:51:23;14.20;64.90
63283;DHT22;49407;51.388;0.048;2022-08-06T03:54:14;14.10;65.00
63283;DHT22;49407;51.388;0.048;2022-08-06T03:56:57;14.00;65.10
63283;DHT22;49407;51.388;0.048;2022-08-06T03:59:27;14.00;65.20
63283;DHT22;49407;51.388;0.048;2022-08-06T04:02:10;13.90;65.00
63283;DHT22;49407;51.388;0.048;2022-08-06T04:05:00;14.00;65.00
63283;DHT22;49407;51.388;0.048;2022-08-06T04:07:32;13.80;65.20
63283;DHT22;49407;51.388;0.048;2022-08-06T04:10:21;13.80;65.70
63283;DHT22;49407;51.388;0.048;2022-08-06T04:13:02;13.80;65.90
63283;DHT22;49407;51.388;0.048;2022-08-06T04:15:51;13.70;66.10
63283;DHT22;49407;51.388;0.048;2022-08-06T04:18:27;13.60;66.20
63283;DHT22;49407;51.388;0.048;2022-08-06T04:20:59;13.50;66.40
63283;DHT22;49407;51.388;0.048;2022-08-06T04:23:47;13.50;66.60
63283;DHT22;49407;51.388;0.048;2022-08-06T04:26:16;13.40;66.60
63283;DHT22;49407;51.388;0.048;2022-08-06T04:28:48;13.30;66.90
63283;DHT22;49407;51.388;0.048;2022-08-06T04:31:28;13.30;67.10
63283;DHT22;49407;51.388;0.048;2022-08-06T04:34:24;13.20;67.30
63283;DHT22;49407;51.388;0.048;2022-08-06T04:36:55;13.20;67.40
63283;DHT22;49407;51.388;0.048;2022-08-06T04:39:24;13.20;67.70
63283;DHT22;49407;51.388;0.048;2022-08-06T04:42:11;13.10;67.90
63283;DHT22;49407;51.388;0.048;2022-08-06T04:44:41;13.20;67.70
63283;DHT22;49407;51.388;0.048;2022-08-06T04:47:10;13.20;67.50
63283;DHT22;49407;51.388;0.048;2022-08-06T04:49:41;13.10;67.70
63283;DHT22;49407;51.388;0.048;2022-08-06T04:52:28;13.10;68.00
63283;DHT22;49407;51.388;0.048;2022-08-06T04:55:18;13.00;68.00
63283;DHT22;49407;51.388;0.048;2022-08-06T04:57:52;13.00;68.20
63283;DHT22;49407;51.388;0.048;2022-08-06T05:00:34;13.00;68.30
63283;DHT22;49407;51.388;0.048;2022-08-06T05:03:21;12.90;68.40
63283;DHT22;49407;51.388;0.048;2022-08-06T05:06:09;12.90;68.40
63283;DHT22;49407;51.388;0.048;2022-08-06T05:08:40;12.90;68.40
63283;DHT22;49407;51.388;0.048;2022-08-06T05:13:43;12.90;68.80
63283;DHT22;49407;51.388;0.048;2022-08-06T05:16:19;12.90;69.00
63283;DHT22;49407;51.388;0.048;2022-08-06T05:18:53;12.90;69.50
63283;DHT22;49407;51.388;0.048;2022-08-06T05:21:45;12.90;69.60
63283;DHT22;49407;51.388;0.048;2022-08-06T05:24:33;13.00;69.50
63283;DHT22;49407;51.388;0.048;2022-08-06T05:27:17;13.00;69.40
63283;DHT22;49407;51.388;0.048;2022-08-06T05:29:45;13.10;69.40
63283;DHT22;49407;51.388;0.048;2022-08-06T05:32:18;13.20;69.40
63283;DHT22;49407;51.388;0.048;2022-08-06T05:34:51;13.20;69.40
63283;DHT22;49407;51.388;0.048;2022-08-06T05:37:19;13.30;69.40
63283;DHT22;49407;51.388;0.048;2022-08-06T05:40:08;13.40;69.40
63283;DHT22;49407;51.388;0.048;2022-08-06T05:42:37;13.60;69.20
63283;DHT22;49407;51.388;0.048;2022-08-06T05:45:08;13.70;69.10
63283;DHT22;49407;51.388;0.048;2022-08-06T05:47:38;13.80;69.10
63283;DHT22;49407;51.388;0.048;2022-08-06T05:50:24;13.90;69.00
63283;DHT22;49407;51.388;0.048;2022-08-06T05:52:56;14.10;69.00
63283;DHT22;49407;51.388;0.048;2022-08-06T05:58:55;14.40;68.70
63283;DHT22;49407;51.388;0.048;2022-08-06T06:01:24;14.60;68.40
63283;DHT22;49407;51.388;0.048;2022-08-06T06:03:53;14.80;68.20
63283;DHT22;49407;51.388;0.048;2022-08-06T06:06:23;15.00;68.10
63283;DHT22;49407;51.388;0.048;2022-08-06T06:08:50;15.10;67.90
63283;DHT22;49407;51.388;0.048;2022-08-06T06:11:28;15.20;67.80
63283;DHT22;49407;51.388;0.048;2022-08-06T06:14:35;15.40;67.70
63283;DHT22;49407;51.388;0.048;2022-08-06T06:17:40;15.60;67.50
63283;DHT22;49407;51.388;0.048;2022-08-06T06:20:17;15.80;67.30
63283;DHT22;49407;51.388;0.048;2022-08-06T06:23:08;16.00;66.90
63283;DHT22;49407;51.388;0.048;2022-08-06T06:26:02;16.10;66.50
63283;DHT22;49407;51.388;0.048;2022-08-06T06:28:40;16.30;66.30
63283;DHT22;49407;51.388;0.048;2022-08-06T06:31:28;16.50;66.10
63283;DHT22;49407;51.388;0.048;2022-08-06T06:34:26;16.70;65.80
63283;DHT22;49407;51.388;0.048;2022-08-06T06:37:05;16.80;65.40
63283;DHT22;49407;51.388;0.048;2022-08-06T06:43:05;17.10;64.90
63283;DHT22;49407;51.388;0.048;2022-08-06T06:48:51;17.40;64.50
63283;DHT22;49407;51.388;0.048;2022-08-06T06:54:50;17.70;63.90
63283;DHT22;49407;51.388;0.048;2022-08-06T06:57:31;17.80;63.70
63283;DHT22;49407;51.388;0.048;2022-08-06T07:00:14;17.90;63.60
63283;DHT22;49407;51.388;0.048;2022-08-06T07:03:03;18.00;63.40
63283;DHT22;49407;51.388;0.048;2022-08-06T07:05:38;18.10;63.10
63283;DHT22;49407;51.388;0.048;2022-08-06T07:08:28;18.30;63.00
63283;DHT22;49407;51.388;0.048;2022-08-06T07:14:30;18.50;62.50
63283;DHT22;49407;51.388;0.048;2022-08-06T07:17:00;18.70;62.20
63283;DHT22;49407;51.388;0.048;2022-08-06T07:19:52;18.80;62.00
63283;DHT22;49407;51.388;0.048;2022-08-06T07:22:22;18.90;61.70
63283;DHT22;49407;51.388;0.048;2022-08-06T07:24:56;19.00;61.50
63283;DHT22;49407;51.388;0.048;2022-08-06T07:27:29;19.10;61.20
63283;DHT22;49407;51.388;0.048;2022-08-06T07:30:15;19.20;61.00
63283;DHT22;49407;51.388;0.048;2022-08-06T07:32:43;19.30;60.80
63283;DHT22;49407;51.388;0.048;2022-08-06T07:35:16;19.40;60.60
63283;DHT22;49407;51.388;0.048;2022-08-06T07:37:57;19.50;60.30
63283;DHT22;49407;51.388;0.048;2022-08-06T07:43:19;19.80;60.00
63283;DHT22;49407;51.388;0.048;2022-08-06T07:45:52;20.00;59.50
63283;DHT22;49407;51.388;0.048;2022-08-06T07:48:27;20.00;59.20
63283;DHT22;49407;51.388;0.048;2022-08-06T07:54:10;20.10;58.80
63283;DHT22;49407;51.388;0.048;2022-08-06T07:56:42;20.30;58.80
63283;DHT22;49407;51.388;0.048;2022-08-06T07:59:27;20.50;58.50
63283;DHT22;49407;51.388;0.048;2022-08-06T08:01:57;20.70;58.10
63283;DHT22;49407;51.388;0.048;2022-08-06T08:04:28;20.80;57.80
63283;DHT22;49407;51.388;0.048;2022-08-06T08:07:20;20.90;57.40
63283;DHT22;49407;51.388;0.048;2022-08-06T08:10:28;21.00;57.00
63283;DHT22;49407;51.388;0.048;2022-08-06T08:12:56;21.10;56.80
63283;DHT22;49407;51.388;0.048;2022-08-06T08:15:31;21.20;56.50
63283;DHT22;49407;51.388;0.048;2022-08-06T08:18:09;21.30;56.40
63283;DHT22;49407;51.388;0.048;2022-08-06T08:20:39;21.40;56.10
63283;DHT22;49407;51.388;0.048;2022-08-06T08:23:20;21.60;55.70
63283;DHT22;49407;51.388;0.048;2022-08-06T08:26:04;21.70;55.40
63283;DHT22;49407;51.388;0.048;2022-08-06T08:28:31;21.70;55.20
63283;DHT22;49407;51.388;0.048;2022-08-06T08:30:59;21.80;54.90
63283;DHT22;49407;51.388;0.048;2022-08-06T08:33:41;21.90;54.60
63283;DHT22;49407;51.388;0.048;2022-08-06T08:36:09;22.00;54.20
63283;DHT22;49407;51.388;0.048;2022-08-06T08:38:37;22.00;54.60
63283;DHT22;49407;51.388;0.048;2022-08-06T08:41:21;21.90;53.60
63283;DHT22;49407;51.388;0.048;2022-08-06T08:44:10;22.00;53.50
63283;DHT22;49407;51.388;0.048;2022-08-06T08:46:42;22.20;53.30
63283;DHT22;49407;51.388;0.048;2022-08-06T08:49:41;22.30;52.70
63283;DHT22;49407;51.388;0.048;2022-08-06T08:52:14;22.30;52.30
63283;DHT22;49407;51.388;0.048;2022-08-06T08:54:48;22.40;52.30
63283;DHT22;49407;51.388;0.048;2022-08-06T08:57:18;22.50;52.10
63283;DHT22;49407;51.388;0.048;2022-08-06T09:00:07;22.60;52.00
63283;DHT22;49407;51.388;0.048;2022-08-06T09:02:40;22.60;51.60
63283;DHT22;49407;51.388;0.048;2022-08-06T09:05:17;22.60;51.40
63283;DHT22;49407;51.388;0.048;2022-08-06T09:07:44;22.70;51.20
63283;DHT22;49407;51.388;0.048;2022-08-06T09:10:28;22.70;50.70
63283;DHT22;49407;51.388;0.048;2022-08-06T09:12:59;22.60;50.40
63283;DHT22;49407;51.388;0.048;2022-08-06T09:15:27;22.60;50.60
63283;DHT22;49407;51.388;0.048;2022-08-06T09:17:58;22.60;50.40
63283;DHT22;49407;51.388;0.048;2022-08-06T09:20:46;22.80;50.10
63283;DHT22;49407;51.388;0.048;2022-08-06T09:23:14;22.90;49.70
63283;DHT22;49407;51.388;0.048;2022-08-06T09:25:50;23.10;49.30
63283;DHT22;49407;51.388;0.048;2022-08-06T09:28:40;23.20;49.00
63283;DHT22;49407;51.388;0.048;2022-08-06T09:34:20;23.40;48.10
63283;DHT22;49407;51.388;0.048;2022-08-06T09:37:05;23.50;47.80
63283;DHT22;49407;51.388;0.048;2022-08-06T09:39:36;23.70;47.10
63283;DHT22;49407;51.388;0.048;2022-08-06T09:42:40;23.70;46.70
63283;DHT22;49407;51.388;0.048;2022-08-06T09:45:10;23.80;46.30
63283;DHT22;49407;51.388;0.048;2022-08-06T09:47:46;23.90;46.20
63283;DHT22;49407;51.388;0.048;2022-08-06T09:50:40;23.90;46.00
63283;DHT22;49407;51.388;0.048;2022-08-06T09:53:12;23.90;45.50
63283;DHT22;49407;51.388;0.048;2022-08-06T09:55:47;24.00;45.50
63283;DHT22;49407;51.388;0.048;2022-08-06T09:58:27;24.00;45.00
63283;DHT22;49407;51.388;0.048;2022-08-06T10:01:20;24.10;44.70
63283;DHT22;49407;51.388;0.048;2022-08-06T10:03:54;24.40;44.40
63283;DHT22;49407;51.388;0.048;2022-08-06T10:06:31;24.60;43.90
63283;DHT22;49407;51.388;0.048;2022-08-06T10:09:07;25.00;43.50
63283;DHT22;49407;51.388;0.048;2022-08-06T10:11:59;25.30;42.80
63283;DHT22;49407;51.388;0.048;2022-08-06T10:14:28;25.60;42.50
63283;DHT22;49407;51.388;0.048;2022-08-06T10:17:15;25.80;42.00
63283;DHT22;49407;51.388;0.048;2022-08-06T10:22:35;26.50;41.10
63283;DHT22;49407;51.388;0.048;2022-08-06T10:25:04;26.80;41.30
63283;DHT22;49407;51.388;0.048;2022-08-06T10:27:39;26.90;39.70
63283;DHT22;49407;51.388;0.048;2022-08-06T10:30:09;26.90;39.30
63283;DHT22;49407;51.388;0.048;2022-08-06T10:35:11;27.40;39.00
63283;DHT22;49407;51.388;0.048;2022-08-06T10:37:49;27.70;38.80
63283;DHT22;49407;51.388;0.048;2022-08-06T10:40:20;27.70;37.80
63283;DHT22;49407;51.388;0.048;2022-08-06T10:42:58;27.70;37.80
63283;DHT22;49407;51.388;0.048;2022-08-06T10:45:30;27.90;37.60
63283;DHT22;49407;51.388;0.048;2022-08-06T10:48:41;28.10;37.60
63283;DHT22;49407;51.388;0.048;2022-08-06T10:51:29;28.50;36.90
63283;DHT22;49407;51.388;0.048;2022-08-06T10:54:17;28.70;36.80
63283;DHT22;49407;51.388;0.048;2022-08-06T10:56:50;28.60;36.80
63283;DHT22;49407;51.388;0.048;2022-08-06T10:59:17;28.70;36.30
63283;DHT22;49407;51.388;0.048;2022-08-06T11:16:27;30.20;34.40
63283;DHT22;49407;51.388;0.048;2022-08-06T11:19:13;30.40;33.40
63283;DHT22;49407;51.388;0.048;2022-08-06T11:21:47;30.50;33.50
63283;DHT22;49407;51.388;0.048;2022-08-06T11:24:29;30.80;33.40
63283;DHT22;49407;51.388;0.048;2022-08-06T11:27:04;30.90;33.40
63283;DHT22;49407;51.388;0.048;2022-08-06T11:32:49;31.40;32.90
63283;DHT22;49407;51.388;0.048;2022-08-06T11:41:19;32.10;32.10
63283;DHT22;49407;51.388;0.048;2022-08-06T11:44:09;32.20;31.50
63283;DHT22;49407;51.388;0.048;2022-08-06T11:46:43;32.40;31.40
63283;DHT22;49407;51.388;0.048;2022-08-06T11:55:05;33.10;29.90
63283;DHT22;49407;51.388;0.048;2022-08-06T11:57:38;33.10;29.80
63283;DHT22;49407;51.388;0.048;2022-08-06T12:00:54;33.20;29.70
63283;DHT22;49407;51.388;0.048;2022-08-06T12:03:37;33.40;29.60
63283;DHT22;49407;51.388;0.048;2022-08-06T12:06:20;33.80;29.50
63283;DHT22;49407;51.388;0.048;2022-08-06T12:09:10;34.20;29.00
63283;DHT22;49407;51.388;0.048;2022-08-06T12:11:50;34.40;28.60
63283;DHT22;49407;51.388;0.048;2022-08-06T12:14:40;34.50;28.60
63283;DHT22;49407;51.388;0.048;2022-08-06T12:17:17;34.70;28.50
63283;DHT22;49407;51.388;0.048;2022-08-06T12:19:48;34.70;29.20
63283;DHT22;49407;51.388;0.048;2022-08-06T12:22:30;35.00;28.60
63283;DHT22;49407;51.388;0.048;2022-08-06T12:24:59;35.30;28.40
63283;DHT22;49407;51.388;0.048;2022-08-06T12:27:37;35.50;28.30
63283;DHT22;49407;51.388;0.048;2022-08-06T12:30:14;35.60;28.30
63283;DHT22;49407;51.388;0.048;2022-08-06T12:33:02;35.80;28.10
63283;DHT22;49407;51.388;0.048;2022-08-06T12:35:29;36.00;27.90
63283;DHT22;49407;51.388;0.048;2022-08-06T12:38:01;36.20;27.70
63283;DHT22;49407;51.388;0.048;2022-08-06T12:40:34;36.20;27.50
63283;DHT22;49407;51.388;0.048;2022-08-06T12:45:41;36.00;27.40
63283;DHT22;49407;51.388;0.048;2022-08-06T12:48:29;35.90;27.30
63283;DHT22;49407;51.388;0.048;2022-08-06T12:51:08;36.00;27.40
63283;DHT22;49407;51.388;0.048;2022-08-06T12:53:52;36.20;27.20
63283;DHT22;49407;51.388;0.048;2022-08-06T12:56:22;36.40;27.10
63283;DHT22;49407;51.388;0.048;2022-08-06T12:58:57;36.50;26.90
63283;DHT22;49407;51.388;0.048;2022-08-06T13:01:28;36.70;26.80
63283;DHT22;49407;51.388;0.048;2022-08-06T13:04:17;37.00;26.70
63283;DHT22;49407;51.388;0.048;2022-08-06T13:06:46;37.40;26.50
63283;DHT22;49407;51.388;0.048;2022-08-06T13:09:15;37.70;26.30
63283;DHT22;49407;51.388;0.048;2022-08-06T13:11:45;37.90;26.10
63283;DHT22;49407;51.388;0.048;2022-08-06T13:14:17;38.00;25.80
63283;DHT22;49407;51.388;0.048;2022-08-06T13:16:48;38.10;25.70
63283;DHT22;49407;51.388;0.048;2022-08-06T13:19:23;38.30;25.70
63283;DHT22;49407;51.388;0.048;2022-08-06T13:22:05;38.40;25.80
63283;DHT22;49407;51.388;0.048;2022-08-06T13:24:35;38.50;25.60
63283;DHT22;49407;51.388;0.048;2022-08-06T13:27:32;38.60;25.60
63283;DHT22;49407;51.388;0.048;2022-08-06T13:30:07;38.90;25.20
63283;DHT22;49407;51.388;0.048;2022-08-06T13:32:54;39.00;25.20
63283;DHT22;49407;51.388;0.048;2022-08-06T13:35:27;38.90;25.20
63283;DHT22;49407;51.388;0.048;2022-08-06T13:37:58;38.90;25.20
63283;DHT22;49407;51.388;0.048;2022-08-06T13:40:48;39.10;25.10
63283;DHT22;49407;51.388;0.048;2022-08-06T13:43:44;39.10;25.00
63283;DHT22;49407;51.388;0.048;2022-08-06T13:46:23;39.20;24.90
63283;DHT22;49407;51.388;0.048;2022-08-06T13:48:57;38.90;24.80
63283;DHT22;49407;51.388;0.048;2022-08-06T13:51:30;38.80;24.70
63283;DHT22;49407;51.388;0.048;2022-08-06T13:54:02;38.70;24.70
63283;DHT22;49407;51.388;0.048;2022-08-06T13:56:46;38.50;24.70
63283;DHT22;49407;51.388;0.048;2022-08-06T13:59:19;38.70;24.70
63283;DHT22;49407;51.388;0.048;2022-08-06T14:01:49;38.70;24.60
63283;DHT22;49407;51.388;0.048;2022-08-06T14:04:20;38.60;24.50
63283;DHT22;49407;51.388;0.048;2022-08-06T14:06:52;38.20;24.70
63283;DHT22;49407;51.388;0.048;2022-08-06T14:09:27;37.80;24.80
63283;DHT22;49407;51.388;0.048;2022-08-06T14:12:14;37.40;24.90
63283;DHT22;49407;51.388;0.048;2022-08-06T14:14:42;37.10;24.90
63283;DHT22;49407;51.388;0.048;2022-08-06T14:17:13;37.00;25.00
63283;DHT22;49407;51.388;0.048;2022-08-06T14:19:41;37.40;25.10
63283;DHT22;49407;51.388;0.048;2022-08-06T14:22:28;37.80;25.00
63283;DHT22;49407;51.388;0.048;2022-08-06T14:25:08;38.30;24.70
63283;DHT22;49407;51.388;0.048;2022-08-06T14:27:36;38.80;24.60
63283;DHT22;49407;51.388;0.048;2022-08-06T14:30:11;39.30;24.30
63283;DHT22;49407;51.388;0.048;2022-08-06T14:32:57;39.50;24.20
63283;DHT22;49407;51.388;0.048;2022-08-06T14:35:36;39.50;24.00
63283;DHT22;49407;51.388;0.048;2022-08-06T14:38:11;39.70;23.90
63283;DHT22;49407;51.388;0.048;2022-08-06T14:40:40;40.00;23.80
63283;DHT22;49407;51.388;0.048;2022-08-06T14:43:29;40.40;23.80
63283;DHT22;49407;51.388;0.048;2022-08-06T14:46:27;40.80;23.60
63283;DHT22;49407;51.388;0.048;2022-08-06T14:48:58;40.90;23.50
63283;DHT22;49407;51.388;0.048;2022-08-06T14:51:31;40.90;23.30
63283;DHT22;49407;51.388;0.048;2022-08-06T14:54:18;41.10;23.20
63283;DHT22;49407;51.388;0.048;2022-08-06T14:56:58;41.40;23.20
63283;DHT22;49407;51.388;0.048;2022-08-06T14:59:25;41.50;23.00
63283;DHT22;49407;51.388;0.048;2022-08-06T15:02:12;41.60;22.90
63283;DHT22;49407;51.388;0.048;2022-08-06T15:04:40;41.70;22.80
63283;DHT22;49407;51.388;0.048;2022-08-06T15:07:11;41.70;22.70
63283;DHT22;49407;51.388;0.048;2022-08-06T15:09:52;41.60;22.50
63283;DHT22;49407;51.388;0.048;2022-08-06T15:12:39;41.70;22.50
63283;DHT22;49407;51.388;0.048;2022-08-06T15:15:16;41.90;22.40
63283;DHT22;49407;51.388;0.048;2022-08-06T15:17:49;42.00;22.50
63283;DHT22;49407;51.388;0.048;2022-08-06T15:20:38;42.20;22.50
63283;DHT22;49407;51.388;0.048;2022-08-06T15:23:06;42.30;22.30
63283;DHT22;49407;51.388;0.048;2022-08-06T15:25:34;42.20;22.20
63283;DHT22;49407;51.388;0.048;2022-08-06T15:28:21;42.10;22.30
63283;DHT22;49407;51.388;0.048;2022-08-06T15:31:08;42.30;22.20
63283;DHT22;49407;51.388;0.048;2022-08-06T15:33:37;42.20;22.00
63283;DHT22;49407;51.388;0.048;2022-08-06T15:36:05;42.10;22.10
63283;DHT22;49407;51.388;0.048;2022-08-06T15:38:33;42.10;22.10
63283;DHT22;49407;51.388;0.048;2022-08-06T15:41:04;42.10;22.10
63283;DHT22;49407;51.388;0.048;2022-08-06T15:43:32;42.30;22.20
63283;DHT22;49407;51.388;0.048;2022-08-06T15:46:11;42.40;22.20
63283;DHT22;49407;51.388;0.048;2022-08-06T15:48:38;42.30;22.10
63283;DHT22;49407;51.388;0.048;2022-08-06T15:54:27;41.90;22.10
63283;DHT22;49407;51.388;0.048;2022-08-06T15:56:54;41.30;22.20
63283;DHT22;49407;51.388;0.048;2022-08-06T15:59:21;40.50;22.30
63283;DHT22;49407;51.388;0.048;2022-08-06T16:01:48;39.40;22.40
63283;DHT22;49407;51.388;0.048;2022-08-06T16:04:28;38.40;22.70
63283;DHT22;49407;51.388;0.048;2022-08-06T16:07:04;37.00;23.00
63283;DHT22;49407;51.388;0.048;2022-08-06T16:09:35;35.70;23.30
63283;DHT22;49407;51.388;0.048;2022-08-06T16:12:22;34.70;23.70
63283;DHT22;49407;51.388;0.048;2022-08-06T16:14:49;33.60;24.20
63283;DHT22;49407;51.388;0.048;2022-08-06T16:17:24;32.90;24.50
63283;DHT22;49407;51.388;0.048;2022-08-06T16:20:17;32.60;24.80
63283;DHT22;49407;51.388;0.048;2022-08-06T16:22:49;32.30;25.00
63283;DHT22;49407;51.388;0.048;2022-08-06T16:25:19;32.10;25.20
63283;DHT22;49407;51.388;0.048;2022-08-06T16:27:48;31.80;25.30
63283;DHT22;49407;51.388;0.048;2022-08-06T16:30:19;31.50;25.50
63283;DHT22;49407;51.388;0.048;2022-08-06T16:32:47;31.30;25.70
63283;DHT22;49407;51.388;0.048;2022-08-06T16:35:15;31.10;25.90
63283;DHT22;49407;51.388;0.048;2022-08-06T16:37:47;30.80;26.10
63283;DHT22;49407;51.388;0.048;2022-08-06T16:40:21;30.60;26.20
63283;DHT22;49407;51.388;0.048;2022-08-06T16:42:51;30.30;26.30
63283;DHT22;49407;51.388;0.048;2022-08-06T16:45:19;30.00;26.40
63283;DHT22;49407;51.388;0.048;2022-08-06T16:47:53;29.80;26.60
63283;DHT22;49407;51.388;0.048;2022-08-06T16:50:45;29.70;26.80
63283;DHT22;49407;51.388;0.048;2022-08-06T16:53:12;29.70;27.00
63283;DHT22;49407;51.388;0.048;2022-08-06T16:55:59;29.60;27.00
63283;DHT22;49407;51.388;0.048;2022-08-06T16:58:26;29.40;27.00
63283;DHT22;49407;51.388;0.048;2022-08-06T17:01:04;29.20;27.20
63283;DHT22;49407;51.388;0.048;2022-08-06T17:03:52;29.00;27.30
63283;DHT22;49407;51.388;0.048;2022-08-06T17:06:29;28.90;27.40
63283;DHT22;49407;51.388;0.048;2022-08-06T17:09:01;28.80;27.50
63283;DHT22;49407;51.388;0.048;2022-08-06T17:11:50;28.70;27.60
63283;DHT22;49407;51.388;0.048;2022-08-06T17:14:27;28.70;27.60
63283;DHT22;49407;51.388;0.048;2022-08-06T17:16:58;28.60;27.70
63283;DHT22;49407;51.388;0.048;2022-08-06T17:19:32;28.50;27.70
63283;DHT22;49407;51.388;0.048;2022-08-06T17:22:03;28.50;27.70
63283;DHT22;49407;51.388;0.048;2022-08-06T17:24:36;28.50;27.80
63283;DHT22;49407;51.388;0.048;2022-08-06T17:27:11;28.40;27.90
63283;DHT22;49407;51.388;0.048;2022-08-06T17:30:01;28.30;27.90
63283;DHT22;49407;51.388;0.048;2022-08-06T17:32:35;28.10;27.90
63283;DHT22;49407;51.388;0.048;2022-08-06T17:35:22;28.10;28.00
63283;DHT22;49407;51.388;0.048;2022-08-06T17:38:09;28.00;28.00
63283;DHT22;49407;51.388;0.048;2022-08-06T17:40:41;27.90;28.00
63283;DHT22;49407;51.388;0.048;2022-08-06T17:43:15;27.80;28.20
63283;DHT22;49407;51.388;0.048;2022-08-06T17:46:02;27.70;28.30
63283;DHT22;49407;51.388;0.048;2022-08-06T17:48:48;27.60;28.30
63283;DHT22;49407;51.388;0.048;2022-08-06T17:51:41;27.50;28.40
63283;DHT22;49407;51.388;0.048;2022-08-06T17:54:08;27.40;28.50